createdAt,value
2023-04-05T00:01:27.084Z,25.47
2023-04-05T00:04:00.316Z,25.84
2023-04-05T00:06:32.510Z,24.43
2023-04-05T00:09:05.135Z,25.94
2023-04-05T00:11:36.526Z,26.23
2023-04-05T00:14:07.706Z,26.84
2023-04-05T00:16:39.141Z,26.59
2023-04-05T00:19:12.705Z,26.39
2023-04-05T00:21:44.359Z,25.51
2023-04-05T00:24:17.086Z,25.38
2023-04-05T00:26:48.620Z,26.04
2023-04-05T00:29:19.720Z,25.84
2023-04-05T00:31:52.100Z,25.88
2023-04-05T00:34:22.677Z,26.16
2023-04-05T00:36:54.407Z,25.76
2023-04-05T00:39:26.320Z,24.69
2023-04-05T00:41:57.829Z,26.33
2023-04-05T00:44:30.318Z,25.49
2023-04-05T00:47:03.354Z,26.20
2023-04-05T00:49:36.061Z,25.71
2023-04-05T00:52:08.098Z,25.73
2023-04-05T00:54:40.722Z,26.29
2023-04-05T00:57:12.625Z,25.82
2023-04-05T00:59:43.815Z,25.49
2023-04-05T01:02:35.872Z,25.65
2023-04-05T01:05:14.606Z,26.08
2023-04-05T01:08:10.268Z,26.36
2023-04-05T01:10:46.754Z,26.44
2023-04-05T01:13:20.627Z,26.04
2023-04-05T01:15:52.175Z,26.76
2023-04-05T01:18:23.628Z,26.33
2023-04-05T01:21:01.345Z,26.56
2023-04-05T01:24:18.201Z,25.94
2023-04-05T01:27:17.066Z,26.07
2023-04-05T01:29:54.078Z,25.95
2023-04-05T01:32:28.660Z,26.39
2023-04-05T01:35:20.347Z,26.51
2023-04-05T01:37:57.967Z,26.13
2023-04-05T01:40:30.720Z,26.35
2023-04-05T01:43:05.108Z,26.30
2023-04-05T01:45:38.153Z,26.02
2023-04-05T01:48:09.840Z,26.29
2023-04-05T01:50:41.450Z,26.44
2023-04-05T01:53:12.997Z,26.13
2023-04-05T01:55:45.887Z,26.42
2023-04-05T01:58:17.099Z,25.31
2023-04-05T02:00:48.018Z,26.73
2023-04-05T02:03:19.185Z,25.79
2023-04-05T02:05:50.305Z,24.49
2023-04-05T02:08:21.754Z,24.37
2023-04-05T02:10:55.915Z,25.23
2023-04-05T02:13:27.811Z,25.13
2023-04-05T02:15:59.361Z,25.61
2023-04-05T02:18:33.605Z,25.32
2023-04-05T02:21:07.658Z,24.97
2023-04-05T02:23:40.921Z,25.55
2023-04-05T02:26:12.035Z,25.58
2023-04-05T02:28:43.273Z,25.64
2023-04-05T02:31:14.275Z,25.26
2023-04-05T02:33:46.115Z,25.84
2023-04-05T02:36:17.193Z,26.64
2023-04-05T02:38:49.043Z,26.37
2023-04-05T02:41:21.671Z,25.70
2023-04-05T02:43:53.229Z,25.37
2023-04-05T02:46:24.587Z,25.67
2023-04-05T02:48:56.172Z,26.46
2023-04-05T02:51:30.207Z,25.95
2023-04-05T02:54:03.327Z,26.13
2023-04-05T02:56:36.925Z,25.54
2023-04-05T02:59:15.225Z,24.30
2023-04-05T03:01:48.676Z,24.72
2023-04-05T03:04:28.371Z,23.99
2023-04-05T03:07:06.308Z,24.18
2023-04-05T03:09:42.177Z,24.21
2023-04-05T03:12:13.985Z,24.16
2023-04-05T03:14:47.698Z,24.86
2023-04-05T03:17:21.861Z,25.84
2023-04-05T03:20:03.921Z,26.11
2023-04-05T03:22:35.276Z,26.60
2023-04-05T03:25:08.188Z,26.40
2023-04-05T03:27:47.430Z,25.42
2023-04-05T03:30:21.331Z,24.62
2023-04-05T03:32:59.203Z,24.68
2023-04-05T03:35:50.881Z,24.74
2023-04-05T03:38:23.001Z,24.93
2023-04-05T03:41:10.637Z,25.25
2023-04-05T03:43:42.322Z,24.92
2023-04-05T03:46:13.499Z,24.99
2023-04-05T03:48:45.080Z,24.86
2023-04-05T03:51:17.026Z,24.87
2023-04-05T03:53:48.395Z,24.90
2023-04-05T03:56:20.289Z,25.08
2023-04-05T03:58:55.039Z,24.62
2023-04-05T04:01:29.780Z,24.78
2023-04-05T04:04:01.793Z,24.54
2023-04-05T04:06:33.676Z,24.79
2023-04-05T04:09:07.383Z,24.63
2023-04-05T04:11:38.532Z,25.02
2023-04-05T04:14:10.905Z,24.70
2023-04-05T04:17:14.263Z,24.00
2023-04-05T04:20:13.889Z,24.05
2023-04-05T04:22:55.304Z,23.72
2023-04-05T04:25:56.242Z,23.92
2023-04-05T04:28:51.887Z,23.98
2023-04-05T04:31:47.313Z,23.97
2023-04-05T04:34:36.325Z,23.71
2023-04-05T04:37:33.518Z,23.76
2023-04-05T04:40:43.152Z,23.23
2023-04-05T04:43:30.280Z,23.34
2023-04-05T04:46:36.117Z,23.18
2023-04-05T04:49:14.689Z,23.26
2023-04-05T04:51:49.883Z,22.95
2023-04-05T04:54:24.498Z,22.64
2023-04-05T04:56:55.477Z,22.52
2023-04-05T04:59:27.326Z,22.52
2023-04-05T05:01:58.718Z,22.45
2023-04-05T05:04:30.225Z,22.15
2023-04-05T05:07:01.437Z,21.96
2023-04-05T05:09:32.677Z,22.30
2023-04-05T05:12:04.109Z,22.07
2023-04-05T05:14:35.300Z,21.61
2023-04-05T05:17:08.025Z,21.41
2023-04-05T05:19:39.675Z,21.92
2023-04-05T05:22:10.641Z,21.94
2023-04-05T05:24:41.898Z,22.10
2023-04-05T05:27:13.235Z,21.40
2023-04-05T05:29:44.575Z,21.13
2023-04-05T05:32:17.587Z,21.20
2023-04-05T05:34:50.153Z,21.12
2023-04-05T05:37:21.612Z,20.96
2023-04-05T05:39:52.919Z,20.77
2023-04-05T05:42:24.359Z,20.54
2023-04-05T05:44:56.222Z,20.46
2023-04-05T05:47:28.374Z,20.38
2023-04-05T05:49:59.503Z,20.07
2023-04-05T05:52:31.063Z,19.78
2023-04-05T05:55:02.565Z,19.44
2023-04-05T05:57:34.229Z,19.83
2023-04-05T06:00:10.429Z,19.82
2023-04-05T06:02:45.723Z,19.36
2023-04-05T06:05:16.813Z,19.27
2023-04-05T06:07:48.537Z,18.94
2023-04-05T06:10:19.455Z,18.88
2023-04-05T06:12:50.682Z,18.70
2023-04-05T06:15:22.204Z,18.64
2023-04-05T06:17:53.058Z,18.54
2023-04-05T06:20:24.320Z,18.61
2023-04-05T06:22:55.351Z,18.31
2023-04-05T06:25:26.565Z,18.48
2023-04-05T06:27:57.548Z,18.31
2023-04-05T06:30:29.115Z,18.05
2023-04-05T06:33:00.007Z,18.15
2023-04-05T06:35:31.281Z,17.96
2023-04-05T06:38:02.841Z,17.94
2023-04-05T06:40:35.631Z,17.83
2023-04-05T06:43:07.037Z,17.83
2023-04-05T06:45:38.745Z,17.79
2023-04-05T06:48:10.509Z,17.84
2023-04-05T06:50:42.423Z,17.65
2023-04-05T06:53:16.138Z,17.67
2023-04-05T06:58:57.470Z,17.56
2023-04-05T07:01:28.780Z,17.50
2023-04-05T07:04:00.087Z,17.60
2023-04-05T07:06:31.298Z,17.41
2023-04-05T07:09:03.709Z,17.43
2023-04-05T07:11:34.977Z,17.30
2023-04-05T07:14:06.842Z,17.15
2023-04-05T07:16:38.267Z,17.16
2023-04-05T07:19:09.461Z,17.05
2023-04-05T07:21:40.480Z,17.16
2023-04-05T07:24:12.183Z,17.09
2023-04-05T07:26:43.530Z,16.96
2023-04-05T07:29:14.978Z,16.90
2023-04-05T07:31:46.478Z,16.88
2023-04-05T07:34:17.566Z,16.98
2023-04-05T07:36:48.870Z,16.91
2023-04-05T07:39:21.673Z,16.82
2023-04-05T07:41:53.116Z,16.93
2023-04-05T07:44:24.340Z,16.94
2023-04-05T07:46:55.315Z,16.72
2023-04-05T07:49:29.226Z,16.63
2023-04-05T07:52:00.579Z,16.64
2023-04-05T07:54:35.068Z,16.74
2023-04-05T07:57:07.056Z,16.54
2023-04-05T07:59:38.950Z,16.26
2023-04-05T08:02:14.643Z,16.47
2023-04-05T08:04:46.454Z,16.46
2023-04-05T08:07:17.481Z,16.29
2023-04-05T08:09:48.692Z,16.09
2023-04-05T08:12:20.055Z,16.14
2023-04-05T08:14:51.468Z,16.22
2023-04-05T08:17:22.730Z,16.28
2023-04-05T08:19:54.704Z,16.17
2023-04-05T08:22:29.511Z,16.02
2023-04-05T08:25:00.849Z,16.01
2023-04-05T08:27:33.064Z,16.02
2023-04-05T08:30:04.515Z,15.77
2023-04-05T08:32:36.402Z,15.72
2023-04-05T08:35:08.072Z,15.69
2023-04-05T08:37:39.748Z,15.84
2023-04-05T08:40:11.897Z,15.76
2023-04-05T08:42:54.732Z,15.67
2023-04-05T08:45:27.546Z,15.65
2023-04-05T08:47:58.965Z,15.83
2023-04-05T08:50:30.904Z,15.85
2023-04-05T08:53:02.459Z,15.78
2023-04-05T08:55:33.553Z,15.86
2023-04-05T08:58:09.621Z,15.98
2023-04-05T09:00:41.387Z,16.02
2023-04-05T09:03:20.111Z,15.74
2023-04-05T09:05:53.363Z,15.64
2023-04-05T09:08:25.177Z,15.62
2023-04-05T09:10:56.903Z,15.50
2023-04-05T09:13:27.847Z,15.56
2023-04-05T09:15:59.584Z,15.38
2023-04-05T09:18:30.727Z,15.17
2023-04-05T09:21:07.229Z,15.15
2023-04-05T09:23:40.516Z,15.29
2023-04-05T09:26:22.934Z,15.21
2023-04-05T09:28:58.219Z,15.34
2023-04-05T09:31:34.775Z,15.20
2023-04-05T09:34:10.773Z,15.03
2023-04-05T09:36:47.158Z,15.11
2023-04-05T09:39:23.043Z,15.16
2023-04-05T09:42:21.303Z,15.14
2023-04-05T09:45:03.772Z,15.00
2023-04-05T09:47:49.823Z,15.03
2023-04-05T09:50:22.838Z,15.04
2023-04-05T09:53:16.889Z,14.98
2023-04-05T09:55:50.849Z,15.04
2023-04-05T09:58:24.066Z,14.78
2023-04-05T10:01:06.197Z,14.78
2023-04-05T10:03:52.542Z,14.84
2023-04-05T10:06:23.872Z,14.92
2023-04-05T10:08:55.028Z,14.75
2023-04-05T10:11:26.386Z,14.73
2023-04-05T10:13:57.718Z,14.97
2023-04-05T10:16:31.641Z,14.85
2023-04-05T10:19:04.619Z,14.81
2023-04-05T10:21:38.347Z,14.97
2023-04-05T10:24:26.355Z,15.00
2023-04-05T10:27:11.228Z,14.90
2023-04-05T10:30:15.018Z,14.76
2023-04-05T10:32:59.562Z,14.78
2023-04-05T10:36:04.504Z,14.69
2023-04-05T10:39:03.363Z,14.51
2023-04-05T10:41:42.432Z,14.66
2023-04-05T10:44:25.076Z,14.62
2023-04-05T10:46:58.309Z,14.52
2023-04-05T10:49:42.564Z,14.48
2023-04-05T10:55:23.395Z,14.55
2023-04-05T10:57:55.025Z,14.44
2023-04-05T11:00:26.277Z,14.57
2023-04-05T11:02:58.601Z,14.53
2023-04-05T11:05:37.130Z,14.45
2023-04-05T11:08:10.564Z,14.46
2023-04-05T11:10:42.515Z,14.32
2023-04-05T11:13:14.069Z,14.26
2023-04-05T11:15:45.387Z,14.17
2023-04-05T11:18:19.223Z,14.08
2023-04-05T11:20:54.564Z,14.06
2023-04-05T11:23:27.319Z,14.21
2023-04-05T11:26:08.095Z,14.29
2023-04-05T11:28:44.026Z,14.29
2023-04-05T11:31:24.280Z,14.16
2023-04-05T11:34:01.445Z,14.10
2023-04-05T11:36:40.513Z,14.07
2023-04-05T11:39:24.123Z,14.06
2023-04-05T11:41:55.924Z,13.95
2023-04-05T11:44:27.617Z,13.90
2023-04-05T11:46:58.781Z,13.83
2023-04-05T11:49:31.044Z,13.82
2023-04-05T11:52:13.624Z,13.79
2023-04-05T11:54:48.194Z,13.90
2023-04-05T11:57:24.686Z,14.09
2023-04-05T11:59:56.027Z,14.13
2023-04-05T12:02:28.047Z,14.12
2023-04-05T12:05:01.552Z,14.04
2023-04-05T12:07:38.346Z,13.89
2023-04-05T12:10:13.333Z,13.87
2023-04-05T12:12:46.649Z,14.03
2023-04-05T12:15:21.108Z,13.97
2023-04-05T12:17:55.738Z,14.12
2023-04-05T12:20:27.733Z,14.05
2023-04-05T12:22:59.599Z,13.96
2023-04-05T12:25:31.201Z,13.88
2023-04-05T12:28:10.364Z,13.82
2023-04-05T12:30:51.967Z,13.86
2023-04-05T12:33:43.310Z,13.78
2023-04-05T12:36:17.181Z,13.89
2023-04-05T12:38:49.836Z,13.71
2023-04-05T12:41:30.394Z,13.66
2023-04-05T12:44:03.277Z,13.68
2023-04-05T12:46:48.531Z,13.62
2023-04-05T12:49:20.805Z,13.53
2023-04-05T12:51:51.896Z,13.41
2023-04-05T12:54:26.277Z,13.38
2023-04-05T12:56:57.697Z,13.30
2023-04-05T12:59:29.413Z,13.17
2023-04-05T13:02:01.376Z,13.04
2023-04-05T13:04:32.010Z,13.05
2023-04-05T13:07:03.248Z,13.00
2023-04-05T13:09:37.113Z,13.04
2023-04-05T13:12:08.226Z,13.00
2023-04-05T13:14:39.784Z,12.89
2023-04-05T13:17:11.105Z,12.78
2023-04-05T13:19:42.598Z,12.79
2023-04-05T13:22:14.093Z,12.96
2023-04-05T13:24:45.504Z,12.87
2023-04-05T13:27:16.875Z,12.95
2023-04-05T13:29:48.047Z,12.94
2023-04-05T13:32:19.463Z,12.93
2023-04-05T13:34:50.879Z,12.92
2023-04-05T13:37:22.544Z,12.78
2023-04-05T13:39:54.235Z,12.80
2023-04-05T13:42:26.113Z,12.53
2023-04-05T13:44:57.706Z,12.64
2023-04-05T13:47:29.317Z,12.65
2023-04-05T13:50:00.565Z,12.60
2023-04-05T13:52:32.965Z,12.56
2023-04-05T13:55:04.319Z,12.56
2023-04-05T13:57:35.445Z,12.39
2023-04-05T14:00:07.646Z,12.54
2023-04-05T14:02:45.370Z,12.57
2023-04-05T14:05:16.958Z,12.46
2023-04-05T14:07:48.737Z,12.28
2023-04-05T14:10:22.790Z,12.09
2023-04-05T14:12:54.041Z,12.16
2023-04-05T14:15:26.659Z,12.22
2023-04-05T14:17:58.076Z,12.28
2023-04-05T14:20:29.395Z,12.03
2023-04-05T14:23:03.440Z,11.92
2023-04-05T14:25:34.651Z,11.69
2023-04-05T14:28:05.800Z,11.81
2023-04-05T14:30:47.883Z,12.07
2023-04-05T14:33:19.260Z,12.02
2023-04-05T14:35:57.123Z,11.90
2023-04-05T14:38:27.738Z,11.92
2023-04-05T14:40:58.982Z,11.97
2023-04-05T14:43:30.185Z,12.07
2023-04-05T14:50:43.559Z,11.90
2023-04-05T14:54:13.212Z,11.99
2023-04-05T14:56:45.671Z,11.99
2023-04-05T14:59:17.005Z,11.97
2023-04-05T15:01:48.710Z,11.89
2023-04-05T15:04:19.954Z,11.95
2023-04-05T15:06:51.005Z,11.74
2023-04-05T15:09:22.467Z,11.66
2023-04-05T15:11:55.535Z,11.56
2023-04-05T15:14:32.260Z,11.57
2023-04-05T15:17:03.958Z,11.57
2023-04-05T15:19:36.988Z,11.51
2023-04-05T15:22:09.240Z,11.65
2023-04-05T15:24:39.876Z,11.79
2023-04-05T15:27:11.816Z,11.75
2023-04-05T15:29:42.789Z,11.56
2023-04-05T15:32:13.736Z,11.50
2023-04-05T15:34:44.910Z,11.56
2023-04-05T15:37:16.553Z,11.63
2023-04-05T15:39:47.972Z,11.75
2023-04-05T15:42:20.263Z,11.68
2023-04-05T15:44:52.317Z,11.63
2023-04-05T15:47:23.506Z,11.60
2023-04-05T15:49:54.626Z,11.58
2023-04-05T15:52:25.924Z,11.51
2023-04-05T15:54:57.810Z,11.59
2023-04-05T15:57:28.750Z,11.48
2023-04-05T15:59:59.766Z,11.39
2023-04-05T16:02:33.467Z,11.60
2023-04-05T16:05:04.615Z,11.51
2023-04-05T16:07:35.971Z,11.65
2023-04-05T16:10:09.009Z,11.60
2023-04-05T16:12:40.322Z,11.49
2023-04-05T16:15:12.467Z,11.49
2023-04-05T16:17:43.286Z,11.36
2023-04-05T16:20:14.541Z,11.29
2023-04-05T16:22:46.700Z,11.41
2023-04-05T16:25:18.277Z,11.45
2023-04-05T16:27:50.128Z,11.32
2023-04-05T16:30:21.438Z,11.31
2023-04-05T16:32:55.598Z,11.28
2023-04-05T16:35:27.340Z,11.31
2023-04-05T16:37:59.972Z,11.35
2023-04-05T16:40:31.410Z,11.42
2023-04-05T16:43:02.411Z,11.65
2023-04-05T16:45:35.413Z,11.85
2023-04-05T16:48:07.558Z,11.84
2023-04-05T16:50:38.858Z,11.80
2023-04-05T16:53:11.769Z,11.74
2023-04-05T16:55:43.524Z,11.76
2023-04-05T16:58:14.698Z,11.74
2023-04-05T17:00:46.148Z,11.42
2023-04-05T17:03:18.198Z,11.49
2023-04-05T17:05:49.734Z,11.46
2023-04-05T17:08:20.786Z,11.29
2023-04-05T17:10:52.742Z,11.22
2023-04-05T17:13:26.075Z,11.21
2023-04-05T17:15:57.479Z,11.04
2023-04-05T17:18:28.704Z,11.11
2023-04-05T17:21:05.031Z,11.10
2023-04-05T17:23:37.093Z,11.07
2023-04-05T17:26:08.413Z,11.10
2023-04-05T17:28:39.610Z,11.07
2023-04-05T17:31:11.218Z,11.16
2023-04-05T17:33:42.450Z,11.13
2023-04-05T17:36:14.346Z,11.17
2023-04-05T17:38:46.028Z,11.24
2023-04-05T17:41:17.060Z,11.09
2023-04-05T17:43:48.857Z,11.02
2023-04-05T17:46:30.500Z,10.91
2023-04-05T17:49:09.182Z,10.96
2023-04-05T17:51:40.516Z,10.92
2023-04-05T17:54:13.796Z,10.96
2023-04-05T17:56:45.379Z,10.90
2023-04-05T17:59:17.764Z,10.90
2023-04-05T18:01:54.832Z,10.91
2023-04-05T18:04:29.632Z,10.97
2023-04-05T18:07:01.041Z,10.91
2023-04-05T18:09:34.572Z,10.87
2023-04-05T18:12:06.538Z,10.91
2023-04-05T18:14:38.383Z,10.76
2023-04-05T18:17:09.967Z,10.82
2023-04-05T18:19:41.371Z,10.94
2023-04-05T18:22:12.880Z,10.86
2023-04-05T18:24:44.939Z,10.76
2023-04-05T18:27:15.894Z,10.78
2023-04-05T18:29:47.705Z,10.83
2023-04-05T18:32:19.564Z,10.91
2023-04-05T18:34:50.824Z,10.95
2023-04-05T18:37:22.092Z,10.75
2023-04-05T18:39:53.522Z,10.93
2023-04-05T18:42:24.950Z,10.96
2023-04-05T18:44:56.119Z,11.03
2023-04-05T18:47:27.575Z,10.93
2023-04-05T18:49:58.979Z,10.99
2023-04-05T18:52:35.522Z,11.09
2023-04-05T18:55:07.989Z,11.15
2023-04-05T18:57:39.295Z,10.98
2023-04-05T19:00:11.013Z,11.09
2023-04-05T19:02:43.078Z,11.16
2023-04-05T19:05:15.081Z,11.20
2023-04-05T19:07:46.461Z,11.26
2023-04-05T19:10:18.771Z,11.28
2023-04-05T19:12:50.247Z,11.37
2023-04-05T19:15:21.897Z,11.44
2023-04-05T19:17:53.117Z,11.55
2023-04-05T19:20:24.603Z,11.47
2023-04-05T19:22:56.057Z,11.66
2023-04-05T19:25:27.958Z,11.80
2023-04-05T19:27:59.397Z,11.82
2023-04-05T19:30:31.091Z,11.99
2023-04-05T19:33:02.413Z,11.98
2023-04-05T19:35:33.925Z,11.83
2023-04-05T19:38:06.020Z,11.58
2023-04-05T19:40:38.996Z,11.41
2023-04-05T19:43:10.508Z,11.33
2023-04-05T19:45:41.818Z,11.27
2023-04-05T19:48:37.307Z,11.51
2023-04-05T19:51:13.148Z,11.53
2023-04-05T19:53:55.170Z,11.49
2023-04-05T19:56:29.976Z,11.56
2023-04-05T19:59:08.701Z,11.63
2023-04-05T20:01:42.134Z,11.71
2023-04-05T20:04:24.456Z,11.79
2023-04-05T20:06:57.633Z,11.88
2023-04-05T20:09:33.262Z,12.05
2023-04-05T20:12:07.037Z,11.99
2023-04-05T20:14:44.613Z,12.28
2023-04-05T20:17:18.606Z,12.19
2023-04-05T20:20:02.389Z,12.11
2023-04-05T20:22:35.134Z,12.29
2023-04-05T20:25:40.051Z,12.55
2023-04-05T20:28:41.315Z,12.62
2023-04-05T20:31:33.949Z,12.92
2023-04-05T20:34:16.590Z,13.10
2023-04-05T20:36:53.979Z,13.24
2023-04-05T20:39:25.423Z,13.43
2023-04-05T20:41:59.830Z,13.46
2023-04-05T20:44:30.975Z,13.58
2023-04-05T20:47:02.821Z,13.66
2023-04-05T20:49:34.211Z,13.74
2023-04-05T20:52:09.131Z,13.60
2023-04-05T20:54:40.505Z,13.64
2023-04-05T20:57:11.660Z,13.69
2023-04-05T20:59:43.590Z,13.73
2023-04-05T21:02:15.679Z,13.85
2023-04-05T21:04:47.830Z,14.01
2023-04-05T21:07:19.739Z,13.88
2023-04-05T21:09:50.964Z,13.79
2023-04-05T21:12:22.263Z,13.84
2023-04-05T21:14:53.445Z,13.87
2023-04-05T21:17:24.717Z,14.06
2023-04-05T21:19:55.916Z,13.89
2023-04-05T21:22:27.149Z,13.99
2023-04-05T21:24:58.159Z,14.29
2023-04-05T21:27:29.400Z,14.35
2023-04-05T21:30:00.785Z,14.39
2023-04-05T21:32:32.414Z,14.44
2023-04-05T21:35:03.911Z,14.48
2023-04-05T21:37:35.205Z,14.26
2023-04-05T21:40:06.796Z,14.16
2023-04-05T21:42:37.980Z,14.47
2023-04-05T21:45:10.035Z,14.80
2023-04-05T21:47:41.528Z,14.95
2023-04-05T21:50:12.772Z,15.10
2023-04-05T21:52:43.965Z,15.08
2023-04-05T21:55:15.381Z,15.26
2023-04-05T21:57:46.628Z,15.36
2023-04-05T22:00:18.356Z,15.52
2023-04-05T22:02:49.806Z,15.59
2023-04-05T22:05:33.842Z,15.60
2023-04-05T22:08:09.859Z,15.87
2023-04-05T22:10:42.539Z,15.95
2023-04-05T22:13:13.834Z,16.12
2023-04-05T22:15:45.783Z,16.28
2023-04-05T22:18:17.312Z,16.09
2023-04-05T22:20:48.731Z,16.08
2023-04-05T22:23:20.121Z,16.06
2023-04-05T22:25:51.251Z,16.04
2023-04-05T22:28:23.118Z,15.98
2023-04-05T22:30:53.786Z,16.01
2023-04-05T22:33:25.238Z,15.83
2023-04-05T22:35:56.620Z,16.06
2023-04-05T22:38:28.878Z,15.91
2023-04-05T22:41:00.211Z,16.18
2023-04-05T22:43:31.788Z,16.28
2023-04-05T22:46:02.428Z,16.32
2023-04-05T22:48:33.677Z,15.84
2023-04-05T22:51:04.768Z,16.03
2023-04-05T22:53:36.272Z,15.99
2023-04-05T22:56:08.268Z,16.15
2023-04-05T22:58:39.662Z,15.67
2023-04-05T23:01:10.537Z,16.28
2023-04-05T23:03:41.858Z,16.51
2023-04-05T23:06:13.245Z,16.86
2023-04-05T23:08:44.971Z,16.58
2023-04-05T23:11:15.982Z,16.51
2023-04-05T23:13:47.396Z,16.67
2023-04-05T23:16:19.296Z,16.75
2023-04-05T23:18:50.652Z,16.80
2023-04-05T23:21:21.960Z,16.61
2023-04-05T23:23:53.757Z,16.58
2023-04-05T23:26:24.718Z,16.78
2023-04-05T23:28:56.032Z,16.67
2023-04-05T23:31:27.991Z,16.58
2023-04-05T23:33:58.854Z,16.66
2023-04-05T23:36:30.374Z,16.57
2023-04-05T23:39:05.006Z,16.91
2023-04-05T23:41:35.911Z,16.70
2023-04-05T23:44:07.857Z,16.98
2023-04-05T23:46:39.129Z,16.82
2023-04-05T23:49:10.702Z,16.86
2023-04-05T23:51:41.790Z,16.94
2023-04-05T23:54:13.425Z,16.91
2023-04-05T23:56:44.502Z,17.01
2023-04-05T23:59:15.869Z,17.01
